createdAt,value
2023-03-12T00:00:21.334Z,-1.28
2023-03-12T00:05:22.200Z,-1.26
2023-03-12T00:10:23.028Z,-1.34
2023-03-12T00:15:24.659Z,-1.26
2023-03-12T00:20:25.669Z,-1.15
2023-03-12T00:25:26.769Z,-1.40
2023-03-12T00:30:28.994Z,-1.31
2023-03-12T00:35:30.128Z,-1.35
2023-03-12T00:40:30.939Z,-1.40
2023-03-12T00:45:31.699Z,-1.38
2023-03-12T00:50:33.406Z,-1.32
2023-03-12T00:55:34.400Z,-1.32
2023-03-12T01:00:35.345Z,-1.33
2023-03-12T01:05:37.089Z,-1.21
2023-03-12T01:10:41.964Z,-1.36
2023-03-12T01:15:43.319Z,-1.32
2023-03-12T01:20:44.745Z,-1.21
2023-03-12T01:25:46.698Z,-0.93
2023-03-12T01:30:47.542Z,-1.00
2023-03-12T01:35:49.604Z,-1.09
2023-03-12T01:40:51.124Z,-0.98
2023-03-12T01:46:24.496Z,-0.84
2023-03-12T01:51:34.628Z,-0.85
2023-03-12T01:56:37.268Z,-0.79
2023-03-12T02:01:39.847Z,-0.68
2023-03-12T02:06:48.625Z,-0.66
2023-03-12T02:11:49.813Z,-0.63
2023-03-12T02:16:53.296Z,-0.67
2023-03-12T02:21:55.019Z,-0.59
2023-03-12T02:26:56.497Z,-0.58
2023-03-12T02:31:59.850Z,-0.46
2023-03-12T02:37:00.804Z,-0.45
2023-03-12T02:42:04.456Z,-0.45
2023-03-12T02:47:07.480Z,-0.27
2023-03-12T02:52:09.053Z,-0.38
2023-03-12T02:57:10.108Z,-0.36
2023-03-12T03:02:12.227Z,-0.35
2023-03-12T03:07:14.122Z,-0.36
2023-03-12T03:12:15.517Z,-0.31
2023-03-12T03:17:16.486Z,-0.37
2023-03-12T03:22:19.260Z,-0.55
2023-03-12T03:27:20.887Z,-0.62
2023-03-12T03:32:21.727Z,-0.42
2023-03-12T03:37:22.544Z,-0.34
2023-03-12T03:42:24.178Z,-0.40
2023-03-12T03:47:25.937Z,-0.54
2023-03-12T03:52:26.793Z,-0.55
2023-03-12T03:57:28.342Z,-0.69
2023-03-12T04:02:29.737Z,-0.56
2023-03-12T04:07:31.919Z,-0.58
2023-03-12T04:12:32.823Z,-0.92
2023-03-12T04:17:33.771Z,-0.83
2023-03-12T04:22:35.825Z,-0.80
2023-03-12T04:27:36.818Z,-0.70
2023-03-12T04:32:38.483Z,-0.65
2023-03-12T04:37:39.615Z,-0.67
2023-03-12T04:42:40.574Z,-0.66
2023-03-12T04:47:41.949Z,-0.43
2023-03-12T04:52:43.846Z,-0.48
2023-03-12T04:57:45.399Z,-0.52
2023-03-12T05:02:46.570Z,-0.57
2023-03-12T05:07:47.704Z,-0.58
2023-03-12T05:12:49.386Z,-0.57
2023-03-12T05:17:50.247Z,-0.77
2023-03-12T05:22:51.650Z,-0.80
2023-03-12T05:27:52.561Z,-0.99
2023-03-12T05:32:53.466Z,-1.10
2023-03-12T05:37:54.376Z,-1.18
2023-03-12T05:42:55.680Z,-1.28
2023-03-12T05:47:57.828Z,-1.37
2023-03-12T05:52:59.240Z,-1.49
2023-03-12T05:58:00.330Z,-1.68
2023-03-12T06:03:01.627Z,-1.72
2023-03-12T06:08:04.019Z,-1.67
2023-03-12T06:13:06.016Z,-1.55
2023-03-12T06:18:07.067Z,-1.52
2023-03-12T06:23:08.809Z,-1.44
2023-03-12T06:28:09.766Z,-1.48
2023-03-12T06:33:10.569Z,-1.51
2023-03-12T06:38:11.342Z,-1.48
2023-03-12T06:43:12.277Z,-1.52
2023-03-12T06:48:13.087Z,-1.51
2023-03-12T06:53:14.083Z,-1.63
2023-03-12T06:58:14.952Z,-1.65
2023-03-12T07:03:15.910Z,-1.77
2023-03-12T07:08:18.189Z,-1.66
2023-03-12T07:13:19.002Z,-1.73
2023-03-12T07:18:19.758Z,-1.40
2023-03-12T07:23:21.516Z,-1.34
2023-03-12T07:28:22.436Z,-1.29
2023-03-12T07:33:23.408Z,-1.37
2023-03-12T07:38:24.758Z,-1.21
2023-03-12T07:43:26.431Z,-1.13
2023-03-12T07:48:28.762Z,-1.14
2023-03-12T07:53:29.524Z,-0.99
2023-03-12T07:58:30.630Z,-0.81
2023-03-12T08:03:32.255Z,-0.84
2023-03-12T08:08:35.398Z,-0.68
2023-03-12T08:13:36.339Z,-0.79
2023-03-12T08:18:37.253Z,-0.69
2023-03-12T08:23:38.008Z,-0.70
2023-03-12T08:28:39.091Z,-0.65
2023-03-12T08:33:42.775Z,-0.45
2023-03-12T08:38:43.585Z,-0.45
2023-03-12T08:43:44.369Z,-0.31
2023-03-12T08:48:45.183Z,-0.42
2023-03-12T08:53:46.397Z,-0.26
2023-03-12T08:58:47.268Z,-0.34
2023-03-12T09:03:50.236Z,-0.26
2023-03-12T09:08:51.102Z,-0.04
2023-03-12T09:14:26.560Z,0.20
2023-03-12T09:19:29.351Z,0.15
2023-03-12T09:24:30.148Z,0.24
2023-03-12T09:29:31.698Z,0.30
2023-03-12T09:34:32.454Z,0.21
2023-03-12T09:39:33.270Z,0.20
2023-03-12T09:44:38.041Z,0.40
2023-03-12T09:49:46.186Z,0.46
2023-03-12T09:54:56.171Z,0.35
2023-03-12T09:59:57.435Z,0.60
2023-03-12T10:05:06.455Z,0.62
2023-03-12T10:11:44.832Z,0.83
2023-03-12T10:18:02.418Z,1.01
2023-03-12T10:23:27.928Z,1.09
2023-03-12T10:28:37.062Z,1.73
2023-03-12T10:33:56.897Z,2.25
2023-03-12T10:38:57.727Z,2.42
2023-03-12T10:44:07.354Z,2.87
2023-03-12T10:49:29.343Z,3.55
2023-03-12T10:54:36.747Z,3.96
2023-03-12T10:59:43.500Z,3.97
2023-03-12T11:04:51.115Z,3.66
2023-03-12T11:10:46.025Z,3.56
2023-03-12T11:15:47.219Z,3.43
2023-03-12T11:20:52.166Z,3.74
2023-03-12T11:26:00.119Z,3.82
2023-03-12T11:31:01.674Z,4.06
2023-03-12T11:36:55.630Z,4.17
2023-03-12T11:45:16.146Z,4.51
2023-03-12T11:55:31.495Z,4.85
2023-03-12T12:00:53.059Z,5.30
2023-03-12T12:09:44.875Z,5.99
2023-03-12T12:15:01.409Z,7.13
2023-03-12T12:21:15.833Z,8.13
2023-03-12T12:26:43.353Z,8.33
2023-03-12T12:31:58.688Z,8.42
2023-03-12T12:37:49.853Z,8.25
2023-03-12T12:43:27.438Z,8.15
2023-03-12T12:48:51.998Z,8.00
2023-03-12T12:54:26.400Z,8.00
2023-03-12T12:59:34.094Z,8.05
2023-03-12T13:04:37.817Z,8.02
2023-03-12T13:09:51.460Z,8.06
2023-03-12T13:14:54.582Z,8.17
2023-03-12T13:23:27.775Z,8.14
2023-03-12T13:30:04.405Z,8.10
2023-03-12T13:36:22.802Z,8.11
2023-03-12T13:41:39.354Z,8.09
2023-03-12T13:46:42.002Z,8.16
2023-03-12T13:51:46.559Z,8.13
2023-03-12T13:56:58.027Z,8.09
2023-03-12T14:02:04.846Z,8.14
2023-03-12T14:08:15.657Z,8.22
2023-03-12T14:16:42.318Z,8.24
2023-03-12T14:21:46.317Z,8.35
2023-03-12T14:26:48.042Z,8.56
2023-03-12T14:31:51.287Z,8.72
2023-03-12T14:38:13.418Z,8.82
2023-03-12T14:43:26.603Z,8.94
2023-03-12T14:48:30.421Z,9.04
2023-03-12T14:53:36.567Z,8.95
2023-03-12T14:58:48.606Z,9.09
2023-03-12T15:03:57.494Z,9.13
2023-03-12T15:09:04.623Z,9.28
2023-03-12T15:14:13.944Z,9.22
2023-03-12T15:19:22.459Z,9.14
2023-03-12T15:24:24.835Z,9.12
2023-03-12T15:29:28.070Z,8.97
2023-03-12T15:34:37.695Z,9.06
2023-03-12T15:39:39.027Z,9.26
2023-03-12T15:44:54.004Z,9.31
2023-03-12T15:49:58.169Z,9.30
2023-03-12T15:56:19.982Z,9.30
2023-03-12T16:01:23.280Z,9.26
2023-03-12T16:06:27.189Z,9.28
2023-03-12T16:11:30.766Z,9.17
2023-03-12T16:16:31.754Z,9.23
2023-03-12T16:21:32.513Z,9.17
2023-03-12T16:26:35.282Z,9.11
2023-03-12T16:31:36.263Z,9.14
2023-03-12T16:36:37.542Z,9.03
2023-03-12T16:41:38.544Z,9.02
2023-03-12T16:46:39.671Z,8.95
2023-03-12T16:51:40.482Z,8.94
2023-03-12T16:56:45.319Z,8.86
2023-03-12T17:01:46.133Z,8.88
2023-03-12T17:06:47.041Z,8.81
2023-03-12T17:11:50.857Z,8.78
2023-03-12T17:16:51.827Z,8.72
2023-03-12T17:21:52.828Z,8.59
2023-03-12T17:26:54.667Z,8.59
2023-03-12T17:31:55.595Z,8.46
2023-03-12T17:36:58.272Z,8.53
2023-03-12T17:41:59.100Z,8.42
2023-03-12T17:47:03.313Z,8.40
2023-03-12T17:52:04.455Z,8.49
2023-03-12T17:57:05.470Z,8.44
2023-03-12T18:02:06.541Z,8.38
2023-03-12T18:07:07.896Z,8.37
2023-03-12T18:12:10.608Z,8.25
2023-03-12T18:17:11.403Z,8.20
2023-03-12T18:22:13.733Z,8.07
2023-03-12T18:27:14.680Z,7.98
2023-03-12T18:32:15.541Z,7.88
2023-03-12T18:37:16.381Z,7.84
2023-03-12T18:42:17.505Z,7.81
2023-03-12T18:47:18.731Z,7.88
2023-03-12T18:52:19.777Z,7.96
2023-03-12T18:57:20.725Z,7.87
2023-03-12T19:02:22.972Z,7.89
2023-03-12T19:07:23.785Z,7.95
2023-03-12T19:12:24.931Z,8.03
2023-03-12T19:17:26.045Z,8.00
2023-03-12T19:22:26.950Z,7.90
2023-03-12T19:27:29.559Z,7.83
2023-03-12T19:32:42.256Z,7.92
2023-03-12T19:37:43.971Z,7.94
2023-03-12T19:42:44.837Z,7.82
2023-03-12T19:47:45.650Z,7.92
2023-03-12T19:52:47.195Z,7.97
2023-03-12T19:57:48.160Z,7.98
2023-03-12T20:02:49.313Z,7.92
2023-03-12T20:07:51.388Z,7.79
2023-03-12T20:12:52.282Z,7.92
2023-03-12T20:17:53.972Z,8.15
2023-03-12T20:22:54.753Z,8.18
2023-03-12T20:27:57.065Z,8.18
2023-03-12T20:32:58.028Z,8.01
2023-03-12T20:37:58.894Z,8.08
2023-03-12T20:43:04.148Z,8.00
2023-03-12T20:48:05.464Z,7.93
2023-03-12T20:53:09.372Z,7.95
2023-03-12T20:58:10.249Z,7.87
2023-03-12T21:03:12.813Z,7.73
2023-03-12T21:08:14.450Z,7.80
2023-03-12T21:13:17.390Z,7.79
2023-03-12T21:18:18.322Z,7.84
2023-03-12T21:23:19.348Z,7.86
2023-03-12T21:28:20.500Z,7.89
2023-03-12T21:33:22.002Z,7.98
2023-03-12T21:38:22.843Z,7.85
2023-03-12T21:43:24.968Z,7.88
2023-03-12T21:48:25.731Z,7.74
2023-03-12T21:53:26.851Z,7.67
2023-03-12T21:58:29.105Z,7.68
2023-03-12T22:03:29.842Z,7.61
2023-03-12T22:08:31.508Z,7.60
2023-03-12T22:13:32.565Z,7.61
2023-03-12T22:18:37.436Z,7.61
2023-03-12T22:23:38.357Z,7.56
2023-03-12T22:28:39.351Z,7.43
2023-03-12T22:33:40.087Z,7.55
2023-03-12T22:38:41.512Z,7.49
2023-03-12T22:43:43.033Z,7.45
2023-03-12T22:48:44.630Z,7.48
2023-03-12T22:53:45.613Z,7.49
2023-03-12T22:58:46.933Z,7.58
2023-03-12T23:03:48.910Z,7.61
2023-03-12T23:08:50.787Z,7.65
2023-03-12T23:13:52.155Z,7.58
2023-03-12T23:18:53.178Z,7.68
2023-03-12T23:23:54.077Z,7.65
2023-03-12T23:28:57.204Z,7.81
2023-03-12T23:33:57.977Z,7.82
2023-03-12T23:38:58.919Z,7.83
2023-03-12T23:43:59.727Z,7.79
2023-03-12T23:49:01.298Z,7.82
2023-03-12T23:54:04.471Z,7.87
2023-03-12T23:59:06.098Z,7.93
